Time;durP1;ratioP1;P1;durP2;ratioP2;P2;SDS_P1;SDS_P2;PMS_P1;PMS_P2;Temp;Humidity;BMP_temperature;BMP_pressure;BME280_temperature;BME280_humidity;BME280_pressure;Samples;Min_cycle;Max_cycle;Signal;HPM_P1;HPM_P2
2022/03/11 00:01:06;;;;;;;5.70;3.20;;;;;;;18.72;46.78;100525.34;5050576;28;20226;-61
2022/03/11 00:03:31;;;;;;;8.77;2.40;;;;;;;18.69;46.34;100519.56;5051308;28;20195;-61
2022/03/11 00:05:57;;;;;;;7.10;2.90;;;;;;;18.73;46.00;100529.88;5050968;28;20963;-61
2022/03/11 00:08:22;;;;;;;5.27;3.00;;;;;;;18.71;46.48;100525.75;5050464;28;20208;-61
2022/03/11 00:10:48;;;;;;;6.90;2.90;;;;;;;18.70;46.45;100516.31;5050766;28;20179;-61
2022/03/11 00:13:13;;;;;;;8.57;2.60;;;;;;;18.70;46.37;100516.31;5050882;28;20172;-61
2022/03/11 00:15:39;;;;;;;5.33;2.27;;;;;;;18.68;46.18;100518.75;5051213;28;20279;-61
2022/03/11 00:18:05;;;;;;;6.73;2.90;;;;;;;18.71;46.73;100531.47;5050924;28;20174;-61
2022/03/11 00:20:31;;;;;;;9.20;3.00;;;;;;;18.67;47.30;100525.63;5050118;28;20584;-61
2022/03/11 00:22:57;;;;;;;6.27;3.00;;;;;;;18.67;46.54;100524.84;5050346;28;20410;-61
2022/03/11 00:25:22;;;;;;;5.00;2.67;;;;;;;18.66;46.70;100521.13;5050648;28;20489;-61
2022/03/11 00:27:48;;;;;;;9.60;2.80;;;;;;;18.64;46.74;100517.00;5050487;28;20176;-61
2022/03/11 00:30:13;;;;;;;7.03;2.67;;;;;;;18.67;46.78;100522.78;5050497;28;20200;-61
2022/03/11 00:32:39;;;;;;;9.00;2.83;;;;;;;18.64;46.74;100523.56;5050838;28;20172;-61
2022/03/11 00:35:08;;;;;;;7.07;2.80;;;;;;;18.67;46.52;100521.97;5039800;28;20543;-61
2022/03/11 00:37:34;;;;;;;6.87;2.80;;;;;;;18.64;46.49;100526.41;5029875;28;20937;-61
2022/03/11 00:39:59;;;;;;;7.10;3.13;;;;;;;18.67;46.66;100522.78;5029344;28;20417;-61
2022/03/11 00:42:25;;;;;;;4.80;2.10;;;;;;;18.63;46.71;100530.47;5030683;28;20168;-61
2022/03/11 00:44:50;;;;;;;10.13;2.57;;;;;;;18.63;46.57;100524.75;5029098;28;20188;-61
2022/03/11 00:47:16;;;;;;;5.13;2.50;;;;;;;18.65;46.53;100524.38;5030585;28;20183;-61
2022/03/11 00:49:41;;;;;;;12.43;2.67;;;;;;;18.64;46.66;100520.69;5030289;28;20196;-61
2022/03/11 00:52:07;;;;;;;9.40;3.17;;;;;;;18.64;46.77;100520.69;5047254;28;20187;-61
2022/03/11 00:54:32;;;;;;;5.93;2.60;;;;;;;18.70;46.78;100524.06;5050359;28;20189;-61
2022/03/11 00:56:58;;;;;;;5.87;2.50;;;;;;;18.67;46.55;100522.78;5050222;28;20207;-61
2022/03/11 00:59:23;;;;;;;7.23;2.83;;;;;;;18.67;46.74;100517.06;5049634;28;20639;-61
2022/03/11 01:01:49;;;;;;;7.50;3.13;;;;;;;18.69;46.55;100531.81;5050004;28;20179;-61
2022/03/11 01:04:14;;;;;;;5.77;2.53;;;;;;;18.67;46.59;100517.06;5050051;28;20274;-61
2022/03/11 01:06:40;;;;;;;7.17;3.07;;;;;;;18.69;46.34;100520.38;5049925;28;20172;-61
2022/03/11 01:09:06;;;;;;;5.47;2.60;;;;;;;18.69;46.56;100506.09;5048753;28;20223;-61
2022/03/11 01:11:32;;;;;;;8.47;2.73;;;;;;;18.71;46.56;100517.16;5050103;28;20437;-61
2022/03/11 01:13:57;;;;;;;5.43;2.67;;;;;;;18.68;46.60;100512.19;5049727;28;20176;-61
2022/03/11 01:16:23;;;;;;;5.13;2.33;;;;;;;18.71;46.58;100512.25;5050096;28;20183;-61
2022/03/11 01:18:49;;;;;;;9.07;3.07;;;;;;;18.73;46.44;100509.03;5049719;28;20176;-61
2022/03/11 01:21:14;;;;;;;6.97;2.80;;;;;;;18.70;46.35;100504.88;5049328;28;20534;-61
2022/03/11 01:23:40;;;;;;;4.90;2.27;;;;;;;18.71;46.54;100508.59;5049640;28;20414;-61
2022/03/11 01:26:05;;;;;;;5.07;2.67;;;;;;;18.73;46.87;100503.28;5049476;28;20180;-61
2022/03/11 01:28:31;;;;;;;5.20;2.90;;;;;;;18.74;46.41;100511.50;5045165;28;20201;-62
2022/03/11 01:30:56;;;;;;;8.70;2.37;;;;;;;18.71;46.53;100506.53;5049053;28;20176;-61
2022/03/11 01:33:22;;;;;;;4.60;2.67;;;;;;;18.71;46.56;100506.53;5049485;28;20180;-61
2022/03/11 01:35:48;;;;;;;6.93;2.80;;;;;;;18.75;46.52;100509.47;5049168;28;20703;-61
2022/03/11 01:38:14;;;;;;;4.60;2.17;;;;;;;18.68;46.76;100510.16;5049378;28;20179;-61
2022/03/11 01:40:39;;;;;;;6.60;2.57;;;;;;;18.71;46.47;100505.72;5049495;28;20780;-61
2022/03/11 01:43:12;;;;;;;7.10;2.13;;;;;;;18.70;46.48;100502.03;5049513;28;20643;-61
2022/03/11 01:45:37;;;;;;;4.50;2.40;;;;;;;18.67;46.73;100499.91;5049735;28;20171;-61
2022/03/11 01:48:03;;;;;;;7.73;2.80;;;;;;;18.70;46.93;100502.03;5049203;28;20414;-61
2022/03/11 01:50:29;;;;;;;9.40;2.60;;;;;;;18.67;46.79;100496.22;5048753;28;20744;-61
2022/03/11 01:52:54;;;;;;;4.70;2.20;;;;;;;18.70;46.85;100493.44;5049431;28;20501;-61
2022/03/11 01:55:20;;;;;;;5.93;2.30;;;;;;;18.71;46.63;100495.09;5049171;28;20172;-61
2022/03/11 01:57:46;;;;;;;9.30;2.60;;;;;;;18.68;46.76;100493.00;5046384;28;20178;-61
2022/03/11 02:00:17;;;;;;;4.70;2.50;;;;;;;18.72;46.49;100493.88;5026162;28;20172;-61
2022/03/11 02:02:43;;;;;;;4.97;2.23;;;;;;;18.71;46.63;100491.41;5029501;28;20411;-61
2022/03/11 02:05:09;;;;;;;4.10;2.23;;;;;;;18.64;46.92;100494.97;5029760;28;20473;-61
2022/03/11 02:07:34;;;;;;;5.80;2.27;;;;;;;18.68;46.53;100501.59;5029005;28;20826;-61
2022/03/11 02:10:00;;;;;;;5.73;2.40;;;;;;;18.69;46.74;100503.22;5048269;28;20314;-61
2022/03/11 02:12:34;;;;;;;3.90;2.47;;;;;;;18.69;46.71;100497.50;5049310;28;20171;-61
2022/03/11 02:15:06;;;;;;;3.77;2.00;;;;;;;18.69;46.33;100488.94;5048691;28;20639;-61
2022/03/11 02:17:32;;;;;;;5.70;2.33;;;;;;;18.67;46.80;100504.81;5030930;28;20705;-61
2022/03/11 02:19:57;;;;;;;5.17;3.13;;;;;;;18.67;46.47;100497.03;5052084;28;20418;-61
2022/03/11 02:22:23;;;;;;;5.70;2.30;;;;;;;18.67;46.83;100501.94;5053019;28;20639;-61
2022/03/11 02:24:52;;;;;;;5.70;2.43;;;;;;;18.69;46.51;100497.50;5053098;28;20184;-61
2022/03/11 02:27:17;;;;;;;5.07;2.20;;;;;;;18.68;46.49;100498.72;5032784;28;20402;-61
2022/03/11 02:29:43;;;;;;;4.33;2.30;;;;;;;18.70;46.51;100513.47;5032776;28;20957;-62
2022/03/11 02:32:09;;;;;;;6.03;2.23;;;;;;;18.67;46.82;100505.63;5033162;28;20184;-61
2022/03/11 02:34:36;;;;;;;4.20;2.10;;;;;;;18.64;46.75;100499.84;5037672;28;20169;-61
2022/03/11 02:37:02;;;;;;;4.63;2.27;;;;;;;18.66;46.46;100498.25;5033176;28;20499;-61
2022/03/11 02:39:28;;;;;;;6.97;1.87;;;;;;;18.65;46.74;100493.75;5032272;28;20411;-61
2022/03/11 02:41:53;;;;;;;3.90;2.00;;;;;;;18.66;47.09;100492.53;5033056;28;20180;-61
2022/03/11 02:44:19;;;;;;;6.73;2.27;;;;;;;18.64;46.75;100494.97;5032934;28;20248;-61
2022/03/11 02:46:44;;;;;;;5.07;2.40;;;;;;;18.66;46.24;100495.41;5032477;28;20180;-61
2022/03/11 02:49:10;;;;;;;5.07;2.23;;;;;;;18.65;46.91;100490.88;5032429;28;20207;-61
2022/03/11 02:51:35;;;;;;;6.60;2.20;;;;;;;18.68;46.54;100492.16;5033079;28;20165;-61
2022/03/11 02:54:00;;;;;;;3.73;2.10;;;;;;;18.67;46.51;100494.19;5039619;28;20172;-61
2022/03/11 02:56:26;;;;;;;4.10;2.30;;;;;;;18.62;47.08;100496.53;5052314;28;20191;-61
2022/03/11 02:58:51;;;;;;;5.97;2.30;;;;;;;18.65;46.47;100498.63;5052212;28;20180;-61
2022/03/11 03:01:17;;;;;;;5.10;2.67;;;;;;;18.66;46.45;100491.72;5052303;28;20183;-61
2022/03/11 03:03:42;;;;;;;4.20;2.10;;;;;;;18.63;46.54;100492.47;5052439;28;20683;-61
2022/03/11 03:06:08;;;;;;;5.13;2.30;;;;;;;18.64;46.75;100494.97;5052775;28;20538;-61
2022/03/11 03:08:33;;;;;;;4.83;2.40;;;;;;;18.64;46.69;100489.22;5051805;28;20223;-61
2022/03/11 03:10:58;;;;;;;4.47;2.00;;;;;;;18.68;47.00;100489.31;5052439;28;20164;-60
2022/03/11 03:13:24;;;;;;;3.60;1.90;;;;;;;18.62;46.51;100482.25;5051485;28;20172;-60
2022/03/11 03:15:49;;;;;;;4.10;2.30;;;;;;;18.67;46.77;100477.03;5052065;28;20187;-60
2022/03/11 03:18:15;;;;;;;4.30;2.13;;;;;;;18.62;46.72;100474.47;5052181;28;20651;-60
2022/03/11 03:20:41;;;;;;;5.40;1.93;;;;;;;18.65;46.84;100476.59;5052444;28;20249;-60
2022/03/11 03:23:07;;;;;;;5.90;2.07;;;;;;;18.62;46.88;100474.47;5051453;28;20509;-60
2022/03/11 03:25:32;;;;;;;4.73;2.33;;;;;;;18.64;46.79;100474.09;5051812;28;20183;-60
2022/03/11 03:27:57;;;;;;;6.67;3.07;;;;;;;18.64;46.63;100472.06;5051800;28;20172;-60
2022/03/11 03:30:23;;;;;;;4.43;2.37;;;;;;;18.64;46.43;100477.78;5051631;28;20639;-60
2022/03/11 03:32:48;;;;;;;3.53;2.00;;;;;;;18.64;46.49;100472.06;5051258;28;20171;-60
2022/03/11 03:35:14;;;;;;;5.40;2.27;;;;;;;18.61;46.75;100478.53;5048705;28;20168;-60
2022/03/11 03:37:39;;;;;;;3.40;1.77;;;;;;;18.63;46.88;100484.72;5051922;28;20168;-61
2022/03/11 03:40:06;;;;;;;4.43;2.23;;;;;;;18.63;46.68;100478.16;5051627;28;20200;-61
2022/03/11 03:42:31;;;;;;;4.10;2.10;;;;;;;18.61;46.75;100477.72;5051850;28;20618;-61
2022/03/11 03:44:57;;;;;;;3.73;1.90;;;;;;;18.60;46.56;100485.47;5051460;28;20413;-61
2022/03/11 03:47:22;;;;;;;5.00;2.13;;;;;;;18.64;46.91;100489.22;5051226;28;20658;-61
2022/03/11 03:49:48;;;;;;;3.47;1.67;;;;;;;18.61;47.02;100489.97;5051405;28;20206;-61
2022/03/11 03:52:13;;;;;;;4.03;2.07;;;;;;;18.62;46.78;100485.09;5048318;28;20188;-61
2022/03/11 03:54:41;;;;;;;3.40;1.80;;;;;;;18.64;46.67;100480.66;5050898;28;20266;-61
2022/03/11 03:57:07;;;;;;;3.50;2.20;;;;;;;18.62;46.73;100490.81;5050124;28;20270;-61
2022/03/11 03:59:32;;;;;;;2.70;1.67;;;;;;;18.60;46.77;100476.88;5050991;28;20451;-61
2022/03/11 04:01:58;;;;;;;4.33;2.03;;;;;;;18.63;46.65;100493.31;5051145;28;20450;-61
2022/03/11 04:04:24;;;;;;;3.10;1.60;;;;;;;18.64;46.66;100489.22;5051241;28;20191;-61
2022/03/11 04:06:49;;;;;;;5.30;1.80;;;;;;;18.65;46.58;100492.91;5050324;28;20176;-61
2022/03/11 04:09:14;;;;;;;5.47;2.03;;;;;;;18.61;46.79;100495.69;5049522;28;20224;-61
2022/03/11 04:11:40;;;;;;;4.57;2.20;;;;;;;18.63;46.80;100490.44;5051470;28;20186;-61
2022/03/11 04:14:06;;;;;;;6.90;2.43;;;;;;;18.63;46.73;100486.75;5050572;28;20191;-61
2022/03/11 04:16:31;;;;;;;3.73;2.13;;;;;;;18.65;47.11;100490.03;5051408;28;20164;-61
2022/03/11 04:18:57;;;;;;;3.50;1.83;;;;;;;18.64;46.80;100491.25;5050003;28;20595;-61
2022/03/11 04:21:22;;;;;;;4.30;2.40;;;;;;;18.65;46.37;100498.63;5051352;28;20190;-61
2022/03/11 04:23:49;;;;;;;6.03;2.17;;;;;;;18.62;46.66;100502.25;5050564;28;20253;-61
2022/03/11 04:26:14;;;;;;;4.33;2.17;;;;;;;18.63;46.67;100499.03;5051226;28;20191;-61
2022/03/11 04:28:40;;;;;;;3.50;2.00;;;;;;;18.61;46.87;100503.47;5046606;28;20464;-61
2022/03/11 04:31:07;;;;;;;4.10;1.70;;;;;;;18.60;46.88;100499.75;5030458;28;20180;-61
2022/03/11 04:33:33;;;;;;;3.70;1.93;;;;;;;18.62;47.00;100503.06;5030742;28;20182;-61
2022/03/11 04:35:58;;;;;;;3.67;2.27;;;;;;;18.60;46.74;100508.34;5029839;28;20774;-61
2022/03/11 04:38:24;;;;;;;7.40;2.50;;;;;;;18.64;46.69;100506.41;5029664;28;20485;-61
2022/03/11 04:40:49;;;;;;;3.90;2.00;;;;;;;18.65;47.13;100505.19;5032406;28;20180;-61
2022/03/11 04:43:15;;;;;;;4.43;2.30;;;;;;;18.63;46.73;100510.47;5030213;28;20196;-61
2022/03/11 04:45:40;;;;;;;3.60;2.07;;;;;;;18.62;46.33;100505.94;5030925;28;20226;-61
2022/03/11 04:48:06;;;;;;;5.00;2.20;;;;;;;18.60;46.87;100504.66;5030567;28;20177;-61
2022/03/11 04:50:31;;;;;;;3.80;2.27;;;;;;;18.63;46.82;100509.63;5030358;28;20644;-61
2022/03/11 04:52:57;;;;;;;3.60;1.87;;;;;;;18.65;46.45;100507.19;5030115;28;20172;-61
2022/03/11 04:55:25;;;;;;;4.17;2.17;;;;;;;18.63;46.66;100498.19;5034767;28;20188;-61
2022/03/11 04:57:51;;;;;;;3.53;1.90;;;;;;;18.62;46.68;100497.34;5049887;28;20176;-61
2022/03/11 05:00:16;;;;;;;3.93;2.03;;;;;;;18.61;46.40;100501.41;5049554;28;20421;-61
2022/03/11 05:02:44;;;;;;;4.47;1.97;;;;;;;18.64;46.46;100494.97;5049707;28;20176;-61
2022/03/11 05:05:13;;;;;;;3.93;2.00;;;;;;;18.65;46.56;100496.59;5032844;28;20226;-61
2022/03/11 05:07:39;;;;;;;3.43;1.80;;;;;;;18.65;46.53;100505.19;5050330;28;20418;-61
2022/03/11 05:10:06;;;;;;;4.20;1.90;;;;;;;18.62;46.38;100500.22;5029392;28;21014;-61
2022/03/11 05:12:31;;;;;;;4.97;2.33;;;;;;;18.62;46.59;100507.97;5029883;28;20230;-61
2022/03/11 05:14:57;;;;;;;5.10;2.63;;;;;;;18.62;46.68;100505.13;5030209;28;20411;-61
2022/03/11 05:17:23;;;;;;;3.10;1.60;;;;;;;18.64;46.45;100506.41;5030036;28;20184;-61
2022/03/11 05:19:48;;;;;;;7.77;2.03;;;;;;;18.61;46.46;100503.47;5029459;28;20181;-61
2022/03/11 05:22:14;;;;;;;3.33;1.90;;;;;;;18.60;46.81;100498.94;5029867;28;20168;-61
2022/03/11 05:24:39;;;;;;;4.40;2.20;;;;;;;18.64;46.32;100499.84;5030465;28;20184;-61
2022/03/11 05:27:05;;;;;;;3.00;1.90;;;;;;;18.62;46.73;100494.47;5029899;28;20651;-61
2022/03/11 05:29:35;;;;;;;4.60;2.33;;;;;;;18.65;46.62;100502.31;5027807;28;20204;-61
2022/03/11 05:32:01;;;;;;;4.40;2.57;;;;;;;18.65;46.81;100501.47;5047924;28;20418;-61
2022/03/11 05:34:26;;;;;;;4.40;2.13;;;;;;;18.63;46.47;100499.03;5049785;28;20452;-61
2022/03/11 05:36:52;;;;;;;4.07;1.73;;;;;;;18.63;46.60;100499.03;5045525;28;20780;-61
2022/03/11 05:39:17;;;;;;;4.37;1.90;;;;;;;18.63;46.67;100509.63;5028904;28;20234;-61
2022/03/11 05:41:44;;;;;;;4.10;2.13;;;;;;;18.57;46.91;100503.38;5029387;28;20237;-61
2022/03/11 05:44:09;;;;;;;5.07;2.03;;;;;;;18.61;46.87;100507.13;5027820;28;20215;-61
2022/03/11 05:46:35;;;;;;;5.40;2.03;;;;;;;18.63;46.65;100507.59;5027844;28;20422;-61
2022/03/11 05:49:03;;;;;;;3.93;1.90;;;;;;;18.59;46.87;100517.28;5028761;28;20210;-61
2022/03/11 05:51:29;;;;;;;3.23;1.83;;;;;;;18.65;46.76;100522.34;5029786;28;20565;-61
2022/03/11 05:53:54;;;;;;;4.53;1.97;;;;;;;18.64;46.64;100534.16;5028710;28;20419;-61
2022/03/11 05:56:20;;;;;;;3.63;2.00;;;;;;;18.64;46.45;100523.56;5041333;28;20245;-61
2022/03/11 05:58:46;;;;;;;4.23;2.00;;;;;;;18.63;46.70;100536.19;5048472;28;20172;-61
2022/03/11 06:01:11;;;;;;;4.07;1.73;;;;;;;18.65;46.35;100532.94;5048188;28;20898;-61
2022/03/11 06:03:37;;;;;;;4.27;2.10;;;;;;;18.61;47.08;100535.72;5047407;28;20937;-61
2022/03/11 06:06:02;;;;;;;4.10;1.70;;;;;;;18.62;46.66;100528.81;5049248;28;20194;-61
2022/03/11 06:08:27;;;;;;;3.63;1.93;;;;;;;18.59;46.60;100531.59;5041760;28;20212;-61
2022/03/11 06:10:53;;;;;;;3.50;2.27;;;;;;;18.61;46.86;100529.19;5029147;28;20165;-61
2022/03/11 06:13:18;;;;;;;4.23;2.30;;;;;;;18.64;46.37;100535.00;5029470;28;20188;-61
2022/03/11 06:15:45;;;;;;;3.23;1.70;;;;;;;18.63;46.66;100541.91;5029277;28;20608;-61
2022/03/11 06:18:13;;;;;;;4.13;2.20;;;;;;;18.61;46.28;100532.88;5017103;28;20178;-61
2022/03/11 06:20:38;;;;;;;3.43;1.60;;;;;;;18.61;46.94;100529.19;5049285;28;20456;-61
2022/03/11 06:23:04;;;;;;;4.43;2.73;;;;;;;18.63;46.97;100526.78;5049099;28;20411;-61
2022/03/11 06:25:29;;;;;;;3.17;1.90;;;;;;;18.63;46.48;100519.03;5048862;28;20229;-61
2022/03/11 06:27:55;;;;;;;3.97;2.10;;;;;;;18.59;46.59;100523.84;5048806;28;20176;-61
2022/03/11 06:30:20;;;;;;;4.30;2.13;;;;;;;18.61;46.67;100524.28;5037900;28;20200;-61
2022/03/11 06:32:47;;;;;;;3.57;2.00;;;;;;;18.61;46.85;100523.47;5029525;28;20204;-61
2022/03/11 06:35:13;;;;;;;2.63;1.37;;;;;;;18.63;46.74;100524.75;5028307;28;20303;-61
2022/03/11 06:37:39;;;;;;;3.30;1.87;;;;;;;18.59;47.13;100523.84;5026893;28;20925;-61
2022/03/11 06:40:06;;;;;;;4.57;1.97;;;;;;;18.61;46.64;100514.91;5028506;28;20906;-61
2022/03/11 06:42:39;;;;;;;4.87;2.47;;;;;;;18.59;46.66;100523.00;5029107;28;20430;-61
2022/03/11 06:45:06;;;;;;;4.33;2.20;;;;;;;18.59;47.19;100528.72;5028952;28;20941;-61
2022/03/11 06:47:31;;;;;;;2.70;1.83;;;;;;;18.62;46.65;100516.56;5028956;28;20906;-61
2022/03/11 06:49:57;;;;;;;4.00;2.17;;;;;;;18.60;46.87;100514.06;5030711;28;20514;-61
2022/03/11 06:52:22;;;;;;;4.83;2.00;;;;;;;18.67;46.53;100521.97;5029274;28;20173;-61
2022/03/11 06:54:48;;;;;;;3.57;2.37;;;;;;;18.64;46.75;100520.69;5028897;28;20164;-61
2022/03/11 06:57:15;;;;;;;3.70;2.20;;;;;;;18.62;46.88;100525.13;5048258;28;20186;-61
2022/03/11 06:59:42;;;;;;;3.67;2.30;;;;;;;18.64;46.43;100528.44;5048977;28;20175;-61
2022/03/11 07:02:07;;;;;;;3.53;2.03;;;;;;;18.65;46.22;100525.19;5048901;28;20418;-61
2022/03/11 07:04:33;;;;;;;4.17;2.60;;;;;;;18.66;46.62;100526.03;5049640;28;20800;-61
2022/03/11 07:06:58;;;;;;;5.97;2.27;;;;;;;18.59;47.08;100532.44;5052647;28;20178;-61
2022/03/11 07:09:24;;;;;;;5.10;2.20;;;;;;;18.66;46.69;100528.91;5050990;28;20227;-61
2022/03/11 07:11:51;;;;;;;3.43;1.93;;;;;;;18.61;46.88;100523.47;5052205;28;20176;-61
2022/03/11 07:14:16;;;;;;;4.30;2.07;;;;;;;18.58;47.10;100530.78;5052027;28;20643;-61
2022/03/11 07:16:42;;;;;;;3.23;1.87;;;;;;;18.64;46.69;100535.00;5052334;28;20436;-61
2022/03/11 07:19:08;;;;;;;5.63;2.33;;;;;;;18.61;46.63;100529.19;5052146;28;20542;-61
2022/03/11 07:21:33;;;;;;;4.20;2.03;;;;;;;18.61;46.81;100535.72;5052227;28;20184;-61
2022/03/11 07:23:59;;;;;;;2.90;1.70;;;;;;;18.64;46.84;100532.13;5051864;28;20845;-61
2022/03/11 07:26:24;;;;;;;4.10;2.23;;;;;;;18.61;46.84;100527.16;5050913;28;20216;-61
2022/03/11 07:28:49;;;;;;;4.43;2.00;;;;;;;18.60;47.14;100528.38;5050449;28;20689;-60
2022/03/11 07:31:15;;;;;;;5.03;2.27;;;;;;;18.59;46.73;100529.56;5051551;28;20543;-60
2022/03/11 07:33:41;;;;;;;5.13;2.10;;;;;;;18.59;46.57;100523.84;5048551;28;20221;-61
2022/03/11 07:36:06;;;;;;;3.80;2.13;;;;;;;18.62;46.75;100537.38;5032121;28;20168;-61
2022/03/11 07:38:32;;;;;;;4.30;2.00;;;;;;;18.62;46.67;100536.56;5031820;28;20550;-61
2022/03/11 07:40:58;;;;;;;3.10;1.77;;;;;;;18.58;46.98;100525.06;5031357;28;20537;-61
2022/03/11 07:43:25;;;;;;;4.93;1.90;;;;;;;18.60;46.70;100518.94;5031718;28;20252;-61
2022/03/11 07:45:50;;;;;;;4.40;1.80;;;;;;;18.60;46.70;100525.50;5031380;28;20472;-61
2022/03/11 07:48:16;;;;;;;3.60;2.03;;;;;;;18.59;47.32;100518.13;5031420;28;20419;-61
2022/03/11 07:50:41;;;;;;;3.70;2.07;;;;;;;18.59;46.74;100525.88;5031487;28;20183;-61
2022/03/11 07:53:07;;;;;;;4.10;2.00;;;;;;;18.61;47.07;100530.00;5043612;28;20179;-61
2022/03/11 07:55:32;;;;;;;4.40;1.90;;;;;;;18.56;46.93;100527.44;5050783;28;20275;-60
2022/03/11 07:57:58;;;;;;;3.40;2.20;;;;;;;18.59;47.04;100532.44;5051277;28;20392;-60
2022/03/11 08:00:23;;;;;;;3.23;1.60;;;;;;;18.57;47.06;100529.09;5050886;28;20179;-61
2022/03/11 08:02:49;;;;;;;3.63;2.10;;;;;;;18.59;46.68;100531.59;5051276;28;20949;-61
2022/03/11 08:05:14;;;;;;;4.30;2.33;;;;;;;18.63;46.91;100521.91;5051201;28;20191;-61
2022/03/11 08:07:45;;;;;;;3.83;1.97;;;;;;;18.63;46.70;100524.75;5051228;28;20172;-61
2022/03/11 08:10:10;;;;;;;4.00;1.97;;;;;;;18.56;47.20;100521.72;5013535;28;20239;-61
2022/03/11 08:12:36;;;;;;;4.97;2.50;;;;;;;18.60;46.74;100522.66;5030939;28;20415;-61
2022/03/11 08:15:02;;;;;;;5.83;2.40;;;;;;;18.62;47.05;100519.41;5031502;28;21153;-61
2022/03/11 08:17:28;;;;;;;4.10;2.00;;;;;;;18.61;46.56;100527.16;5029324;28;20649;-61
2022/03/11 08:19:53;;;;;;;5.53;2.10;;;;;;;18.60;46.82;100531.22;5029698;28;20427;-61
2022/03/11 08:22:19;;;;;;;3.53;2.20;;;;;;;18.62;46.94;100519.41;5030201;28;20180;-61
2022/03/11 08:24:44;;;;;;;4.20;1.90;;;;;;;18.62;46.83;100534.53;5031347;28;20173;-61
2022/03/11 08:27:11;;;;;;;3.03;1.70;;;;;;;18.59;47.13;100531.59;5049861;28;20179;-61
2022/03/11 08:29:37;;;;;;;4.70;2.07;;;;;;;18.60;46.75;100528.38;5050450;28;20204;-61
2022/03/11 08:32:03;;;;;;;3.30;2.10;;;;;;;18.61;46.63;100530.00;5044593;28;20422;-61
2022/03/11 08:34:29;;;;;;;3.20;1.73;;;;;;;18.61;46.95;100535.72;5030830;28;20191;-61
2022/03/11 08:36:54;;;;;;;2.90;2.03;;;;;;;18.63;46.53;100524.75;5030981;28;20418;-61
2022/03/11 08:39:20;;;;;;;3.30;1.93;;;;;;;18.61;46.94;100524.28;5030162;28;20263;-61
2022/03/11 08:41:46;;;;;;;4.10;2.00;;;;;;;18.63;46.86;100521.91;5030675;28;20584;-61
2022/03/11 08:44:11;;;;;;;4.40;1.83;;;;;;;18.60;46.90;100525.50;5043436;28;20180;-61
2022/03/11 08:46:38;;;;;;;4.00;1.77;;;;;;;18.63;46.94;100524.75;5030502;28;20466;-61
2022/03/11 08:49:03;;;;;;;3.03;2.03;;;;;;;18.63;46.60;100524.75;5028711;28;20350;-61
2022/03/11 08:51:29;;;;;;;3.70;1.87;;;;;;;18.66;46.69;100528.91;5012484;28;20490;-61
2022/03/11 08:53:54;;;;;;;4.40;2.23;;;;;;;18.63;46.56;100536.19;5032825;28;20160;-61
2022/03/11 08:56:22;;;;;;;3.20;2.00;;;;;;;18.64;46.75;100540.72;5042563;28;20191;-61
2022/03/11 08:58:49;;;;;;;2.77;1.80;;;;;;;18.63;47.12;100541.09;5049839;28;20172;-61
2022/03/11 09:01:15;;;;;;;5.23;2.13;;;;;;;18.60;46.85;100534.09;5049990;28;20529;-61
2022/03/11 09:03:40;;;;;;;4.10;2.27;;;;;;;18.62;46.82;100531.66;5050115;28;20434;-61
2022/03/11 09:06:06;;;;;;;3.53;1.90;;;;;;;18.65;46.89;100535.81;5050158;28;20409;-61
2022/03/11 09:08:31;;;;;;;3.83;1.90;;;;;;;18.61;46.91;100527.16;5042161;28;20232;-61
2022/03/11 09:10:57;;;;;;;4.03;2.00;;;;;;;18.64;46.98;100520.69;5029481;28;20172;-61
2022/03/11 09:13:22;;;;;;;4.27;1.80;;;;;;;18.62;47.02;100511.66;5029976;28;20165;-61
2022/03/11 09:15:47;;;;;;;2.90;1.60;;;;;;;18.63;47.13;100516.19;5029314;28;20161;-61
2022/03/11 09:18:14;;;;;;;3.00;2.10;;;;;;;18.62;46.73;100517.38;5031676;28;20180;-61
2022/03/11 09:20:40;;;;;;;2.80;1.90;;;;;;;18.60;46.96;100516.94;5049631;28;20705;-61
2022/03/11 09:23:06;;;;;;;4.07;2.07;;;;;;;18.63;46.85;100521.06;5050137;28;20421;-61
2022/03/11 09:25:32;;;;;;;3.27;1.77;;;;;;;18.62;47.62;100520.22;5049281;28;20464;-61
2022/03/11 09:27:57;;;;;;;3.00;1.60;;;;;;;18.65;46.49;100524.38;5049164;28;20505;-61
2022/03/11 09:30:22;;;;;;;3.13;1.90;;;;;;;18.64;47.03;100528.44;5048853;28;20203;-61
2022/03/11 09:32:48;;;;;;;3.20;1.93;;;;;;;18.62;46.83;100522.28;5034042;28;20682;-60
2022/03/11 09:35:15;;;;;;;3.23;2.40;;;;;;;18.64;46.83;100528.44;5049765;28;20221;-60
2022/03/11 09:37:41;;;;;;;2.97;2.03;;;;;;;18.63;46.79;100527.63;5049528;28;20270;-60
2022/03/11 09:40:07;;;;;;;7.40;2.10;;;;;;;18.68;47.29;100523.63;5047674;28;20402;-60
2022/03/11 09:42:33;;;;;;;7.20;2.13;;;;;;;18.72;46.50;100528.19;5049134;28;20180;-60
2022/03/11 09:44:58;;;;;;;5.83;2.57;;;;;;;18.72;46.17;100521.66;5046386;28;20406;-60
2022/03/11 09:47:24;;;;;;;4.00;2.90;;;;;;;18.66;46.32;100518.28;5049711;28;20531;-60
2022/03/11 09:49:50;;;;;;;4.77;2.83;;;;;;;18.67;45.79;100519.91;5048989;28;20253;-61
2022/03/11 09:52:16;;;;;;;8.37;4.77;;;;;;;18.50;45.74;100517.53;5049378;28;20917;-61
2022/03/11 09:54:42;;;;;;;15.23;10.27;;;;;;;18.36;45.23;100514.34;5049725;28;20426;-62
2022/03/11 09:57:07;;;;;;;12.60;8.83;;;;;;;18.26;41.76;100512.03;5046863;28;20426;-60
2022/03/11 09:59:32;;;;;;;15.90;11.73;;;;;;;18.32;38.48;100516.28;5047114;28;20172;-60
2022/03/11 10:01:58;;;;;;;18.97;11.70;;;;;;;18.40;37.58;100512.41;5049494;28;20663;-60
2022/03/11 10:04:24;;;;;;;15.73;10.67;;;;;;;18.60;36.81;100501.78;5049354;28;20552;-60
2022/03/11 10:06:51;;;;;;;18.17;11.23;;;;;;;18.75;37.02;100501.72;5049131;28;20191;-60
2022/03/11 10:09:20;;;;;;;14.30;10.17;;;;;;;18.93;36.78;100502.91;5048381;28;20234;-60
2022/03/11 10:11:50;;;;;;;15.00;10.33;;;;;;;18.99;36.87;100501.38;5049114;28;20426;-60
2022/03/11 10:14:15;;;;;;;11.23;8.33;;;;;;;19.04;37.54;100500.25;5048916;28;20438;-60
2022/03/11 10:16:41;;;;;;;12.53;8.73;;;;;;;19.11;37.42;100497.53;5049453;28;20924;-60
2022/03/11 10:19:07;;;;;;;13.80;8.63;;;;;;;19.15;37.95;100499.25;5048488;28;20178;-60
2022/03/11 10:21:37;;;;;;;12.97;8.07;;;;;;;19.09;38.11;100494.19;5048316;28;20566;-60
2022/03/11 10:24:05;;;;;;;12.57;8.17;;;;;;;19.17;38.33;100493.94;5047971;28;20425;-60
2022/03/11 10:26:37;;;;;;;14.13;7.30;;;;;;;19.07;38.94;100491.72;5049068;28;20456;-61
2022/03/11 10:29:04;;;;;;;10.20;7.13;;;;;;;19.02;39.38;100492.03;5048506;28;20454;-61
2022/03/11 10:31:34;;;;;;;11.70;8.00;;;;;;;18.98;39.70;100488.28;5049234;28;20548;-60
2022/03/11 10:34:18;;;;;;;10.23;7.30;;;;;;;18.97;39.68;100483.75;5048805;28;20495;-60
2022/03/11 10:36:47;;;;;;;11.93;7.53;;;;;;;18.88;40.51;100480.34;5048597;28;20901;-60
2022/03/11 10:39:14;;;;;;;11.63;7.37;;;;;;;18.92;40.86;100481.19;5045515;28;20423;-60
2022/03/11 10:41:39;;;;;;;8.17;5.87;;;;;;;18.90;40.73;100474.22;5035438;28;20483;-60
2022/03/11 10:44:08;;;;;;;10.17;6.57;;;;;;;18.86;40.97;100467.63;5052821;28;20905;-60
2022/03/11 10:46:34;;;;;;;8.03;5.27;;;;;;;18.84;41.27;100470.00;5052566;28;20187;-60
2022/03/11 10:49:02;;;;;;;8.27;6.03;;;;;;;18.84;41.51;100465.13;5052085;28;20461;-60
2022/03/11 10:51:29;;;;;;;11.63;6.40;;;;;;;18.82;41.58;100467.53;5051646;28;20245;-60
2022/03/11 10:53:55;;;;;;;8.20;5.23;;;;;;;18.82;41.90;100467.53;5052514;28;20799;-60
2022/03/11 10:56:35;;;;;;;12.20;6.30;;;;;;;18.85;41.54;100465.94;5052633;28;20769;-60
2022/03/11 10:59:04;;;;;;;8.10;5.90;;;;;;;18.85;41.76;100455.34;5052090;28;20468;-60
2022/03/11 11:01:40;;;;;;;8.90;5.80;;;;;;;18.83;41.74;100459.78;5049171;28;20929;-60
2022/03/11 11:04:07;;;;;;;9.90;5.77;;;;;;;18.80;42.24;100458.50;5034666;28;20437;-60
2022/03/11 11:06:34;;;;;;;7.10;5.20;;;;;;;18.79;42.21;100454.00;5052644;28;20836;-60
2022/03/11 11:08:59;;;;;;;7.97;5.10;;;;;;;18.80;42.50;100455.66;5040105;28;20981;-60
2022/03/11 11:11:24;;;;;;;7.57;4.87;;;;;;;18.81;42.50;100460.16;5032575;28;20424;-60
2022/03/11 11:13:50;;;;;;;8.23;5.00;;;;;;;18.81;42.57;100454.44;5032109;28;20176;-60
2022/03/11 11:16:16;;;;;;;6.63;4.67;;;;;;;18.80;42.49;100446.22;5045115;28;20175;-60
2022/03/11 11:18:44;;;;;;;6.50;4.57;;;;;;;18.78;42.74;100451.50;5050764;28;20200;-61